Time;durP1;ratioP1;P1;durP2;ratioP2;P2;SDS_P1;SDS_P2;PMS_P1;PMS_P2;Temp;Humidity;BMP_temperature;BMP_pressure;BME280_temperature;BME280_humidity;BME280_pressure;Samples;Min_cycle;Max_cycle;Signal;HPM_P1;HPM_P2
2022/09/21 00:00:05;;;;;;;11.52;7.22;;;14.10;79.40;;;;;;4978188;28;20046;-79
2022/09/21 00:02:30;;;;;;;8.85;6.15;;;14.20;79.40;;;;;;4977728;28;20130;-78
2022/09/21 00:04:56;;;;;;;10.32;6.78;;;14.20;79.50;;;;;;4960788;28;20141;-78
2022/09/21 00:07:22;;;;;;;13.60;7.55;;;14.10;79.30;;;;;;4939789;28;20059;-78
2022/09/21 00:09:48;;;;;;;9.57;6.70;;;14.10;79.50;;;;;;4948077;28;20392;-79
2022/09/21 00:12:15;;;;;;;10.95;7.32;;;14.10;79.70;;;;;;4956323;28;20047;-78
2022/09/21 00:14:42;;;;;;;11.75;7.50;;;14.10;79.60;;;;;;4941959;28;20041;-78
2022/09/21 00:17:08;;;;;;;12.27;6.70;;;14.10;79.60;;;;;;4941575;28;20039;-78
2022/09/21 00:19:34;;;;;;;10.98;7.18;;;14.10;79.70;;;;;;4957738;28;20522;-78
2022/09/21 00:22:00;;;;;;;11.48;7.75;;;14.00;79.70;;;;;;4959188;28;20444;-78
2022/09/21 00:24:26;;;;;;;10.77;6.60;;;14.10;79.90;;;;;;4946286;28;20035;-77
2022/09/21 00:26:52;;;;;;;10.68;7.25;;;14.10;80.00;;;;;;4959260;28;20035;-76
2022/09/21 00:29:19;;;;;;;11.20;7.03;;;14.10;79.90;;;;;;4957076;28;20129;-78
2022/09/21 00:31:44;;;;;;;11.48;7.55;;;14.10;79.90;;;;;;4960054;28;20138;-76
2022/09/21 00:34:10;;;;;;;12.00;7.75;;;14.10;80.00;;;;;;4946362;28;20042;-78
2022/09/21 00:36:36;;;;;;;10.93;7.53;;;14.00;80.00;;;;;;4960983;28;20039;-77
2022/09/21 00:39:02;;;;;;;9.23;7.45;;;14.10;80.20;;;;;;4960526;28;20074;-79
2022/09/21 00:41:31;;;;;;;14.05;9.18;;;14.00;80.10;;;;;;4916170;28;20087;-78
2022/09/21 00:44:15;;;;;;;13.02;8.63;;;14.00;80.20;;;;;;4949286;28;20027;-77
2022/09/21 00:46:42;;;;;;;12.57;8.93;;;14.00;80.20;;;;;;4921432;28;20170;-77
2022/09/21 00:49:08;;;;;;;13.13;9.20;;;14.00;80.10;;;;;;4963947;28;20038;-78
2022/09/21 00:51:36;;;;;;;16.15;8.50;;;14.00;80.20;;;;;;4961048;28;20043;-78
2022/09/21 00:54:06;;;;;;;9.25;7.45;;;14.00;80.00;;;;;;4963136;28;20039;-78
2022/09/21 00:56:34;;;;;;;12.18;7.97;;;14.00;79.70;;;;;;4960533;28;20340;-76
2022/09/21 00:59:00;;;;;;;12.05;8.57;;;14.00;79.60;;;;;;4960407;28;20038;-77
2022/09/21 01:01:26;;;;;;;10.73;7.85;;;14.00;79.60;;;;;;4960680;28;20070;-77
2022/09/21 01:03:55;;;;;;;12.30;7.95;;;14.00;79.40;;;;;;4945134;28;20075;-78
2022/09/21 01:06:21;;;;;;;9.98;7.85;;;13.90;79.30;;;;;;4976802;28;20038;-78
2022/09/21 01:08:51;;;;;;;10.25;7.97;;;13.90;79.30;;;;;;4948145;28;20041;-77
2022/09/21 01:11:33;;;;;;;9.15;6.95;;;13.90;79.20;;;;;;4962417;28;20042;-79
2022/09/21 01:13:59;;;;;;;9.80;7.43;;;13.90;79.20;;;;;;4953311;28;20060;-77
2022/09/21 01:17:02;;;;;;;13.23;7.93;;;13.80;79.20;;;;;;4963560;28;20121;-78
2022/09/21 01:19:47;;;;;;;10.10;8.55;;;13.90;79.30;;;;;;4963042;28;20026;-78
2022/09/21 01:22:18;;;;;;;12.38;8.23;;;13.80;78.90;;;;;;4963522;28;20529;-79
2022/09/21 01:24:55;;;;;;;8.70;7.13;;;13.90;78.80;;;;;;4968773;28;20046;-78
2022/09/21 01:27:44;;;;;;;9.65;7.40;;;13.80;78.80;;;;;;4950857;28;20039;-79
2022/09/21 01:30:20;;;;;;;8.57;7.03;;;13.80;78.60;;;;;;4963444;28;20535;-79
2022/09/21 01:33:04;;;;;;;10.98;7.32;;;13.80;78.50;;;;;;4980730;28;20461;-80
2022/09/21 01:35:53;;;;;;;10.77;7.95;;;13.80;78.80;;;;;;4934347;28;20117;-78
2022/09/21 01:38:29;;;;;;;10.93;7.85;;;13.80;79.30;;;;;;4963192;28;20061;-79
2022/09/21 01:41:01;;;;;;;8.27;7.13;;;13.70;78.80;;;;;;4967231;28;20051;-79
2022/09/21 01:43:39;;;;;;;10.32;7.38;;;13.70;78.70;;;;;;4945043;28;20069;-79
2022/09/21 01:46:09;;;;;;;11.30;6.80;;;13.70;78.60;;;;;;4980225;28;20402;-77
2022/09/21 01:48:39;;;;;;;12.93;7.15;;;13.70;78.60;;;;;;4980429;28;20089;-77
2022/09/21 01:51:09;;;;;;;10.60;7.20;;;13.70;78.50;;;;;;4962434;28;20528;-79
2022/09/21 01:53:49;;;;;;;8.93;7.53;;;13.60;78.60;;;;;;4966771;28;20035;-78
2022/09/21 01:56:25;;;;;;;10.07;6.95;;;13.60;78.60;;;;;;4981151;28;20034;-78
2022/09/21 01:59:10;;;;;;;9.00;6.32;;;13.60;78.20;;;;;;4963229;28;20049;-79
2022/09/21 02:01:49;;;;;;;8.77;6.10;;;13.50;78.00;;;;;;4962102;28;20030;-79
2022/09/21 02:04:15;;;;;;;9.57;7.03;;;13.50;78.20;;;;;;4962503;28;20042;-78
2022/09/21 02:06:44;;;;;;;12.63;8.30;;;13.50;78.20;;;;;;4946488;28;20077;-78
2022/09/21 02:09:11;;;;;;;13.10;7.93;;;13.50;78.20;;;;;;4980596;28;20035;-79
2022/09/21 02:11:43;;;;;;;11.68;7.43;;;13.40;78.20;;;;;;4930347;28;20049;-77
2022/09/21 02:14:17;;;;;;;9.38;7.43;;;13.40;78.10;;;;;;4980646;28;20045;-78
2022/09/21 02:17:06;;;;;;;13.68;8.57;;;13.40;78.10;;;;;;4980123;28;20038;-79
2022/09/21 02:19:43;;;;;;;12.85;9.27;;;13.40;78.30;;;;;;4980053;28;20526;-79
2022/09/21 02:22:35;;;;;;;19.15;9.88;;;13.30;78.20;;;;;;4978736;28;20535;-80
2022/09/21 02:25:39;;;;;;;13.38;10.23;;;13.30;78.30;;;;;;4979109;28;20125;-80
2022/09/21 02:28:17;;;;;;;16.83;10.10;;;13.30;78.40;;;;;;4979201;28;20105;-79
2022/09/21 02:30:51;;;;;;;16.00;9.57;;;13.30;78.30;;;;;;4960637;28;20034;-78
2022/09/21 02:33:27;;;;;;;14.45;10.23;;;13.20;78.40;;;;;;4944008;28;20069;-79
2022/09/21 02:36:14;;;;;;;16.95;10.48;;;13.20;78.50;;;;;;4979231;28;20039;-78
2022/09/21 02:39:01;;;;;;;14.43;9.80;;;13.20;78.60;;;;;;4978603;28;20037;-79
2022/09/21 02:41:33;;;;;;;15.45;9.77;;;13.20;78.60;;;;;;4978692;28;20069;-79
2022/09/21 02:44:05;;;;;;;15.65;10.00;;;13.20;78.60;;;;;;4978676;28;20422;-79
2022/09/21 02:46:39;;;;;;;13.75;10.43;;;13.20;78.60;;;;;;4978055;28;20407;-79
2022/09/21 02:49:28;;;;;;;14.20;10.05;;;13.30;78.60;;;;;;4978208;28;20056;-79
2022/09/21 02:51:59;;;;;;;17.73;10.27;;;13.30;78.60;;;;;;4944942;28;20093;-79
2022/09/21 02:54:29;;;;;;;13.90;10.07;;;13.30;78.70;;;;;;4943759;28;20094;-79
2022/09/21 02:56:57;;;;;;;15.50;9.98;;;13.20;78.90;;;;;;4959076;28;20565;-79
2022/09/21 02:59:23;;;;;;;14.27;9.93;;;13.20;79.10;;;;;;4958812;28;20677;-78
2022/09/21 03:01:50;;;;;;;17.30;10.02;;;13.20;79.10;;;;;;4977706;28;20129;-78
2022/09/21 03:04:16;;;;;;;12.23;9.15;;;13.20;79.10;;;;;;4977487;28;20121;-78
2022/09/21 03:06:42;;;;;;;13.43;9.80;;;13.20;79.20;;;;;;4959779;28;21181;-80
2022/09/21 03:09:08;;;;;;;13.98;10.20;;;13.20;79.30;;;;;;4948894;28;20078;-79
2022/09/21 03:11:34;;;;;;;18.83;10.85;;;13.20;79.30;;;;;;4944946;28;20039;-79
2022/09/21 03:14:07;;;;;;;11.77;8.90;;;13.20;79.50;;;;;;4960416;28;20038;-78
2022/09/21 03:16:37;;;;;;;14.50;9.10;;;13.20;79.50;;;;;;4947336;28;20061;-80
2022/09/21 03:19:04;;;;;;;13.90;8.90;;;13.20;79.50;;;;;;4977599;28;20044;-79
2022/09/21 03:21:30;;;;;;;13.73;9.85;;;13.20;79.40;;;;;;4976606;28;20472;-80
2022/09/21 03:23:56;;;;;;;16.52;10.02;;;13.20;79.40;;;;;;4959920;28;20426;-79
2022/09/21 03:26:22;;;;;;;13.43;9.27;;;13.20;79.40;;;;;;4944029;28;20035;-78
2022/09/21 03:28:53;;;;;;;16.92;9.35;;;13.20;79.60;;;;;;4977151;28;20039;-78
2022/09/21 03:31:19;;;;;;;14.77;9.68;;;13.20;79.80;;;;;;4959359;28;20425;-79
2022/09/21 03:33:45;;;;;;;16.65;9.45;;;13.20;79.80;;;;;;4980630;28;20540;-78
2022/09/21 03:36:11;;;;;;;13.85;8.65;;;13.20;79.80;;;;;;4962705;28;20034;-78
2022/09/21 03:38:38;;;;;;;11.13;8.68;;;13.20;79.90;;;;;;4961053;28;20038;-78
2022/09/21 03:41:04;;;;;;;13.68;9.02;;;13.20;79.90;;;;;;4976946;28;20514;-79
2022/09/21 03:43:31;;;;;;;14.27;8.73;;;13.20;79.90;;;;;;4959488;28;20034;-81
2022/09/21 03:45:56;;;;;;;13.95;9.23;;;13.20;79.70;;;;;;4959875;28;20042;-81
2022/09/21 03:48:23;;;;;;;12.55;8.82;;;13.20;79.60;;;;;;4943306;28;20434;-83
2022/09/21 03:50:49;;;;;;;15.00;9.20;;;13.20;79.60;;;;;;4975242;28;20051;-84
2022/09/21 03:53:15;;;;;;;15.23;10.00;;;13.20;79.70;;;;;;4942179;28;20047;-84
2022/09/21 03:55:42;;;;;;;14.55;10.00;;;13.30;79.80;;;;;;4927226;28;20540;-83
2022/09/21 03:58:08;;;;;;;12.73;9.27;;;13.30;79.80;;;;;;4960119;28;20038;-80
2022/09/21 04:00:34;;;;;;;12.63;9.18;;;13.30;80.00;;;;;;4977405;28;20034;-83
2022/09/21 04:03:00;;;;;;;14.10;9.20;;;13.30;80.00;;;;;;4976241;28;20034;-85
2022/09/21 04:05:27;;;;;;;14.55;8.88;;;13.30;80.10;;;;;;4941780;28;20332;-82
2022/09/21 04:07:54;;;;;;;12.98;8.50;;;13.30;80.10;;;;;;4957738;28;20058;-85
2022/09/21 04:10:25;;;;;;;11.75;8.75;;;13.40;80.20;;;;;;4961351;28;20113;-90
2022/09/21 04:12:55;;;;;;;12.77;8.98;;;13.30;80.20;;;;;;4951913;28;20120;-87
2022/09/21 04:15:22;;;;;;;12.82;8.82;;;13.40;80.40;;;;;;4960789;28;20089;-83
2022/09/21 04:17:52;;;;;;;12.80;9.07;;;13.40;80.50;;;;;;4938245;28;20038;-82
2022/09/21 04:20:19;;;;;;;14.82;9.52;;;13.40;80.50;;;;;;4958486;28;20065;-82
2022/09/21 04:22:45;;;;;;;15.18;9.60;;;13.40;80.60;;;;;;4942444;28;20118;-79
2022/09/21 04:25:12;;;;;;;13.48;8.88;;;13.40;80.70;;;;;;4977292;28;20082;-81
2022/09/21 04:27:39;;;;;;;15.07;8.40;;;13.50;80.90;;;;;;4958753;28;20038;-81
2022/09/21 04:30:07;;;;;;;13.45;9.18;;;13.50;80.90;;;;;;4943150;28;21493;-81
2022/09/21 04:32:33;;;;;;;12.45;8.70;;;13.40;80.70;;;;;;4948622;28;20053;-81
2022/09/21 04:34:59;;;;;;;13.45;8.38;;;13.50;80.80;;;;;;4944483;28;20042;-85
2022/09/21 04:37:25;;;;;;;11.98;8.32;;;13.50;80.80;;;;;;4957763;28;20400;-83
2022/09/21 04:39:51;;;;;;;13.10;9.13;;;13.60;81.70;;;;;;4959119;28;20030;-83
2022/09/21 04:42:16;;;;;;;12.02;8.25;;;13.60;81.20;;;;;;4976972;28;20526;-85
2022/09/21 04:44:42;;;;;;;11.57;8.10;;;13.60;81.20;;;;;;4977665;28;20042;-83
2022/09/21 04:47:08;;;;;;;10.48;7.97;;;13.60;81.30;;;;;;4952426;28;20034;-78
2022/09/21 04:49:34;;;;;;;15.80;8.77;;;13.50;81.10;;;;;;4958388;28;20026;-87
2022/09/21 04:52:01;;;;;;;12.52;9.30;;;13.60;81.40;;;;;;4944044;28;20092;-85
2022/09/21 04:54:27;;;;;;;13.40;8.93;;;13.60;81.60;;;;;;4947395;28;20528;-85
2022/09/21 04:56:53;;;;;;;13.07;8.50;;;13.60;81.60;;;;;;4932067;28;20038;-86
2022/09/21 04:59:19;;;;;;;11.48;8.65;;;13.60;81.70;;;;;;4947887;28;20037;-88
2022/09/21 05:01:45;;;;;;;14.27;8.35;;;13.60;81.60;;;;;;4952889;28;20031;-87
2022/09/21 05:04:11;;;;;;;11.90;8.35;;;13.60;81.70;;;;;;4971504;28;20031;-88
2022/09/21 05:06:37;;;;;;;13.57;8.45;;;13.70;81.90;;;;;;4926777;28;20518;-87
2022/09/21 05:11:47;;;;;;;12.77;8.20;;;13.60;82.00;;;;;;4963182;28;20039;-85
2022/09/21 05:14:13;;;;;;;14.38;8.52;;;13.70;82.30;;;;;;4959505;28;20031;-87
2022/09/21 05:16:39;;;;;;;15.57;8.63;;;13.60;82.50;;;;;;4943372;28;20035;-86
2022/09/21 05:19:05;;;;;;;13.23;8.68;;;13.70;82.40;;;;;;4963944;28;20070;-86
2022/09/21 05:21:31;;;;;;;11.63;8.43;;;13.70;82.40;;;;;;4962430;28;20429;-86
2022/09/21 05:23:57;;;;;;;11.88;8.30;;;13.80;82.60;;;;;;4930365;28;20129;-86
2022/09/21 05:26:23;;;;;;;11.15;7.93;;;13.80;82.60;;;;;;4946041;28;20046;-85
2022/09/21 05:28:50;;;;;;;12.82;8.30;;;13.80;82.60;;;;;;4950351;28;20410;-85
2022/09/21 05:31:39;;;;;;;10.48;7.38;;;13.80;82.60;;;;;;4955596;28;20125;-87
2022/09/21 05:34:38;;;;;;;10.80;7.03;;;13.80;82.70;;;;;;4962080;28;20042;-86
2022/09/21 05:37:10;;;;;;;10.32;7.32;;;13.90;83.00;;;;;;4979341;28;20057;-86
2022/09/21 05:39:36;;;;;;;8.27;7.15;;;14.00;82.20;;;;;;4961734;28;20079;-86
2022/09/21 05:42:03;;;;;;;10.25;7.00;;;14.10;82.10;;;;;;4946010;28;20039;-88
2022/09/21 05:44:29;;;;;;;8.50;6.53;;;14.10;82.00;;;;;;4945690;28;20579;-87
2022/09/21 05:47:29;;;;;;;8.25;6.57;;;14.10;81.80;;;;;;4961773;28;20038;-85
2022/09/21 05:50:04;;;;;;;9.25;6.65;;;14.20;81.80;;;;;;4903014;29;20051;-83
2022/09/21 05:52:42;;;;;;;7.30;6.40;;;14.20;81.60;;;;;;4901948;29;20504;-87
2022/09/21 05:55:33;;;;;;;8.43;6.95;;;14.20;81.40;;;;;;4879476;29;20110;-83
2022/09/21 05:58:20;;;;;;;6.35;5.10;;;14.30;81.20;;;;;;4919377;29;20108;-82
2022/09/21 06:00:53;;;;;;;6.32;5.30;;;14.30;81.00;;;;;;4875977;29;20035;-84
2022/09/21 06:03:30;;;;;;;7.20;5.57;;;14.30;81.40;;;;;;4887216;29;20042;-83
2022/09/21 06:05:57;;;;;;;6.90;5.35;;;14.40;80.80;;;;;;4914911;29;20037;-82
2022/09/21 06:08:24;;;;;;;7.05;5.85;;;14.50;80.70;;;;;;4904033;29;20134;-84
2022/09/21 06:10:51;;;;;;;6.88;5.80;;;14.50;80.70;;;;;;4894151;29;20515;-82
2022/09/21 06:13:17;;;;;;;7.28;6.45;;;14.50;80.60;;;;;;4901873;29;20035;-82
2022/09/21 06:15:43;;;;;;;8.60;6.90;;;14.60;80.50;;;;;;4897297;29;20671;-82
2022/09/21 06:18:09;;;;;;;7.65;6.20;;;14.70;80.30;;;;;;4909522;29;20032;-82
2022/09/21 06:20:36;;;;;;;8.00;6.65;;;14.80;80.10;;;;;;4910553;29;20038;-83
2022/09/21 06:23:06;;;;;;;8.18;6.68;;;14.80;79.90;;;;;;4894980;29;20092;-83
2022/09/21 06:25:33;;;;;;;8.40;6.40;;;14.90;79.80;;;;;;4900236;28;20074;-83
2022/09/21 06:28:06;;;;;;;9.57;7.13;;;14.90;79.70;;;;;;4978492;28;20037;-84
2022/09/21 06:30:33;;;;;;;8.98;7.30;;;14.90;79.70;;;;;;4977340;28;20568;-83
2022/09/21 06:33:01;;;;;;;12.95;7.47;;;14.90;79.50;;;;;;4976933;28;20046;-82
2022/09/21 06:35:28;;;;;;;9.10;6.60;;;14.90;79.50;;;;;;4944126;28;20065;-84
2022/09/21 06:38:01;;;;;;;11.43;7.60;;;15.00;79.60;;;;;;4960786;28;20041;-84
2022/09/21 06:40:28;;;;;;;9.00;7.53;;;15.00;79.60;;;;;;4960902;28;20383;-82
2022/09/21 06:42:59;;;;;;;10.60;6.97;;;15.10;79.50;;;;;;4962606;28;20038;-84
2022/09/21 06:45:27;;;;;;;10.95;7.13;;;15.10;79.40;;;;;;4977242;28;20034;-82
2022/09/21 06:47:53;;;;;;;8.70;7.07;;;15.20;79.40;;;;;;4960125;28;20027;-83
2022/09/21 06:50:19;;;;;;;7.82;6.18;;;15.20;79.40;;;;;;4978506;28;20042;-83
2022/09/21 06:52:45;;;;;;;6.97;6.13;;;15.20;79.40;;;;;;4931954;28;20421;-83
2022/09/21 06:55:12;;;;;;;9.38;6.25;;;15.20;79.50;;;;;;4948638;28;20125;-83
2022/09/21 06:57:38;;;;;;;7.80;5.80;;;15.20;79.50;;;;;;4961028;28;20039;-83
2022/09/21 07:00:08;;;;;;;8.68;6.18;;;15.30;79.40;;;;;;4961172;28;20038;-83
2022/09/21 07:02:34;;;;;;;8.32;5.57;;;15.30;79.30;;;;;;4930460;28;20113;-83
2022/09/21 07:05:01;;;;;;;7.50;5.53;;;15.30;79.40;;;;;;4947519;28;20169;-83
2022/09/21 07:07:30;;;;;;;8.48;5.30;;;15.30;79.40;;;;;;4959617;28;20058;-83
2022/09/21 07:10:00;;;;;;;7.55;5.55;;;15.30;79.30;;;;;;4950069;28;20038;-83
2022/09/21 07:12:33;;;;;;;6.45;5.28;;;15.40;79.20;;;;;;4930959;28;20137;-84
2022/09/21 07:15:00;;;;;;;5.68;4.45;;;15.40;79.00;;;;;;4955075;28;20810;-82
2022/09/21 13:28:55;;;;;;;;;;;15.20;78.90;;;;;;5110414;27;20418;-86
2022/09/21 13:31:39;;;;;;;2.60;2.40;;;15.70;79.10;;;;;;5038271;28;19918;-84
2022/09/21 13:34:33;;;;;;;3.58;2.40;;;15.80;78.30;;;;;;5026518;28;20037;-88
2022/09/21 13:37:13;;;;;;;2.38;2.17;;;15.90;77.80;;;;;;5020865;28;20026;-88
2022/09/21 13:39:49;;;;;;;2.90;2.40;;;16.00;77.30;;;;;;5023327;28;20033;-88
2022/09/21 13:42:33;;;;;;;2.72;2.38;;;16.00;77.10;;;;;;5037741;28;20053;-86
2022/09/21 13:45:16;;;;;;;3.20;2.45;;;16.10;76.90;;;;;;5041506;28;20121;-87
2022/09/21 13:47:51;;;;;;;4.55;2.30;;;16.20;76.70;;;;;;5057069;28;20037;-86
2022/09/21 13:50:41;;;;;;;2.55;2.05;;;16.20;76.30;;;;;;5041668;28;20495;-85
2022/09/21 13:53:32;;;;;;;3.63;2.47;;;16.20;76.40;;;;;;5034430;28;20037;-87
2022/09/21 13:56:18;;;;;;;2.90;2.47;;;16.20;76.00;;;;;;5030279;28;20029;-86
2022/09/21 13:58:50;;;;;;;3.97;2.65;;;16.20;76.00;;;;;;5026796;28;20029;-87
2022/09/21 14:01:43;;;;;;;3.13;2.60;;;16.30;75.80;;;;;;5038697;28;20036;-86
2022/09/21 14:04:21;;;;;;;4.50;2.75;;;16.20;75.90;;;;;;5004720;28;20025;-87
2022/09/21 14:06:49;;;;;;;3.65;2.95;;;16.30;75.80;;;;;;4997373;28;20169;-87
2022/09/21 14:09:50;;;;;;;4.85;3.50;;;16.30;75.70;;;;;;5015448;28;20520;-85
2022/09/21 14:12:22;;;;;;;3.75;3.38;;;16.30;75.80;;;;;;4949543;28;20049;-86
2022/09/21 14:15:16;;;;;;;4.50;3.30;;;16.30;75.60;;;;;;4972252;28;20114;-87
2022/09/21 14:17:43;;;;;;;4.95;3.70;;;16.30;75.80;;;;;;4959430;28;20452;-87
2022/09/21 14:20:30;;;;;;;4.75;3.53;;;16.30;75.80;;;;;;4972186;28;20518;-87
2022/09/21 14:23:15;;;;;;;4.40;3.13;;;16.30;76.00;;;;;;4971221;28;20043;-87
2022/09/21 14:25:55;;;;;;;3.72;3.00;;;16.30;75.90;;;;;;4971880;28;20034;-87
2022/09/21 14:28:33;;;;;;;3.60;3.22;;;16.30;76.00;;;;;;4949945;28;20373;-87
2022/09/21 14:31:05;;;;;;;4.57;2.95;;;16.30;75.90;;;;;;4958918;28;20048;-88
2022/09/21 14:33:41;;;;;;;3.45;3.00;;;16.30;76.00;;;;;;4963330;28;20031;-87
2022/09/21 14:36:10;;;;;;;3.80;3.15;;;16.20;76.00;;;;;;4962210;28;20134;-89
2022/09/21 14:38:51;;;;;;;5.03;2.90;;;16.20;76.10;;;;;;4959470;28;20086;-87
2022/09/21 14:41:21;;;;;;;4.22;3.22;;;16.20;76.30;;;;;;4986099;28;20042;-88
2022/09/21 14:43:51;;;;;;;4.28;3.10;;;16.20;76.20;;;;;;4975202;28;20035;-85
2022/09/21 14:46:17;;;;;;;4.00;2.95;;;16.20;76.20;;;;;;4995279;28;21142;-88
2022/09/21 14:49:08;;;;;;;5.13;3.35;;;16.20;76.30;;;;;;4987452;28;20045;-87
2022/09/21 14:51:42;;;;;;;5.80;3.72;;;16.20;76.40;;;;;;5025215;28;20038;-85
2022/09/21 14:54:47;;;;;;;5.88;3.53;;;16.20;76.30;;;;;;5039707;28;20120;-88
2022/09/21 14:57:39;;;;;;;4.22;3.83;;;16.20;76.30;;;;;;4995189;28;20049;-88
2022/09/21 15:00:25;;;;;;;4.30;3.85;;;16.20;76.20;;;;;;5025081;28;20068;-85
2022/09/21 15:03:25;;;;;;;4.18;3.75;;;16.20;76.20;;;;;;5027041;28;20037;-86
2022/09/21 15:12:19;;;;;;;4.45;3.65;;;16.20;76.20;;;;;;5007350;28;20092;-83
2022/09/21 15:15:20;;;;;;;3.60;3.22;;;16.20;76.20;;;;;;4988005;28;20062;-85
2022/09/21 15:17:59;;;;;;;4.07;3.28;;;16.10;76.30;;;;;;5036782;28;20042;-84
2022/09/21 15:20:27;;;;;;;4.38;3.42;;;16.10;76.20;;;;;;5023425;28;20446;-86
2022/09/21 15:22:55;;;;;;;4.50;3.50;;;16.10;76.30;;;;;;4989913;28;20034;-84
2022/09/21 15:25:23;;;;;;;3.97;3.58;;;16.10;76.20;;;;;;5011752;28;20447;-86
2022/09/21 15:27:50;;;;;;;3.33;3.03;;;16.10;76.30;;;;;;5025985;28;20045;-86
2022/09/21 15:30:23;;;;;;;3.92;2.92;;;16.10;76.30;;;;;;5021418;28;20029;-84
2022/09/21 15:32:58;;;;;;;4.43;2.92;;;16.10;76.30;;;;;;5022659;28;20149;-86
2022/09/21 15:35:31;;;;;;;4.82;3.35;;;16.10;76.20;;;;;;5025708;28;20037;-85
2022/09/21 15:37:59;;;;;;;3.38;2.60;;;16.10;76.20;;;;;;5009000;28;20037;-85
2022/09/21 15:40:30;;;;;;;4.10;2.67;;;16.10;76.00;;;;;;5009319;28;20041;-86
2022/09/21 15:43:01;;;;;;;3.13;2.65;;;16.00;76.00;;;;;;5038056;28;20053;-85
2022/09/21 15:45:32;;;;;;;3.38;2.60;;;16.00;76.10;;;;;;5023885;28;20025;-84
2022/09/21 15:47:59;;;;;;;3.22;2.63;;;16.00;76.20;;;;;;5021229;28;20041;-86
2022/09/21 15:50:28;;;;;;;2.55;2.35;;;16.00;76.00;;;;;;5009131;28;20036;-84
2022/09/21 15:53:01;;;;;;;3.00;2.70;;;16.00;76.00;;;;;;4993636;28;20038;-83
2022/09/21 15:55:29;;;;;;;3.38;2.83;;;16.00;76.00;;;;;;5026774;28;20572;-85
2022/09/21 15:57:56;;;;;;;2.78;2.42;;;16.00;76.00;;;;;;5010622;28;20128;-87
2022/09/21 16:00:37;;;;;;;3.13;2.83;;;16.00;76.10;;;;;;5038746;28;20026;-86
2022/09/21 16:03:21;;;;;;;5.35;2.95;;;15.90;76.10;;;;;;5037935;28;20057;-86
2022/09/21 16:05:53;;;;;;;3.05;2.63;;;15.90;76.20;;;;;;5044364;28;20049;-89
2022/09/21 16:08:35;;;;;;;3.53;2.70;;;15.90;76.10;;;;;;5026091;28;20041;-85
2022/09/21 16:11:12;;;;;;;3.90;2.75;;;15.90;76.20;;;;;;5008997;28;20045;-89
2022/09/21 16:16:24;;;;;;;3.57;2.90;;;15.90;76.40;;;;;;5009466;28;20171;-84
2022/09/21 16:18:53;;;;;;;6.13;3.88;;;15.80;76.30;;;;;;5020721;28;20046;-84
2022/09/21 16:21:26;;;;;;;4.53;3.38;;;15.90;76.40;;;;;;5037355;28;20075;-86
2022/09/21 16:23:56;;;;;;;3.45;3.15;;;15.80;76.50;;;;;;5021090;28;20079;-84
2022/09/21 16:26:33;;;;;;;5.60;3.50;;;15.80;76.60;;;;;;5021160;28;20089;-84
2022/09/21 16:29:22;;;;;;;5.57;4.00;;;15.90;76.60;;;;;;5022341;28;20090;-86
2022/09/21 16:31:48;;;;;;;6.00;3.78;;;15.80;76.50;;;;;;5004129;28;20489;-83
2022/09/21 16:34:36;;;;;;;4.40;3.78;;;15.80;76.50;;;;;;5021072;28;20041;-81
2022/09/21 16:37:19;;;;;;;4.53;3.78;;;15.80;76.60;;;;;;5017797;28;20515;-83
2022/09/21 16:39:48;;;;;;;5.20;3.22;;;15.70;76.60;;;;;;5021163;28;20032;-86
2022/09/21 16:42:15;;;;;;;4.65;2.90;;;15.80;76.50;;;;;;5022896;28;20522;-84
2022/09/21 16:44:44;;;;;;;3.50;3.08;;;15.70;76.40;;;;;;5003979;28;20121;-84
2022/09/21 16:47:23;;;;;;;4.55;3.20;;;15.80;76.20;;;;;;5019944;28;20524;-82
2022/09/21 16:49:55;;;;;;;3.30;3.00;;;15.70;76.10;;;;;;5035957;28;20038;-80
2022/09/21 16:52:23;;;;;;;4.15;2.90;;;15.70;76.10;;;;;;5019234;28;20044;-83
2022/09/21 16:54:49;;;;;;;4.35;2.90;;;15.70;76.20;;;;;;5023925;28;20033;-80
2022/09/21 16:57:16;;;;;;;4.32;2.65;;;15.70;76.20;;;;;;5024040;28;20132;-85
2022/09/21 16:59:42;;;;;;;3.38;2.60;;;15.70;76.40;;;;;;4986181;28;20509;-83
2022/09/21 17:02:11;;;;;;;4.05;2.65;;;15.80;76.50;;;;;;5010070;28;20044;-86
2022/09/21 17:04:37;;;;;;;3.58;2.30;;;15.70;76.50;;;;;;5022753;28;20040;-86
2022/09/21 17:07:03;;;;;;;4.40;2.05;;;15.80;76.70;;;;;;4984122;28;23330;-87
2022/09/21 17:09:34;;;;;;;2.20;1.90;;;15.90;76.40;;;;;;5021267;28;20041;-86
2022/09/21 17:12:02;;;;;;;4.43;1.67;;;15.90;76.00;;;;;;5018423;28;20052;-87
2022/09/21 17:14:41;;;;;;;2.53;1.50;;;15.90;75.80;;;;;;5035098;28;20175;-87
2022/09/21 17:17:23;;;;;;;2.20;1.42;;;15.90;75.40;;;;;;5020221;28;20049;-82
2022/09/21 17:19:51;;;;;;;2.30;1.10;;;15.90;75.20;;;;;;5004105;28;20034;-79
2022/09/21 17:22:17;;;;;;;1.52;1.27;;;15.90;75.00;;;;;;5004503;28;20500;-83
2022/09/21 17:24:45;;;;;;;3.17;1.08;;;15.80;74.80;;;;;;5004241;28;20032;-81
2022/09/21 17:27:12;;;;;;;1.42;1.00;;;15.80;75.20;;;;;;5021994;28;20041;-83
2022/09/21 17:29:45;;;;;;;1.65;1.08;;;15.80;75.40;;;;;;5004081;28;20037;-81
2022/09/21 17:32:13;;;;;;;1.45;0.98;;;15.90;75.50;;;;;;5022061;28;20045;-82
2022/09/21 17:34:41;;;;;;;1.13;0.95;;;15.90;75.30;;;;;;5022904;28;20037;-82
2022/09/21 17:37:10;;;;;;;1.55;0.95;;;15.80;75.60;;;;;;5007322;28;20052;-80
2022/09/21 17:39:36;;;;;;;0.80;0.70;;;15.80;75.60;;;;;;5023557;28;20184;-82
2022/09/21 17:42:13;;;;;;;1.75;0.68;;;15.70;75.90;;;;;;5006848;28;20516;-81
2022/09/21 17:44:43;;;;;;;1.98;1.20;;;15.70;76.20;;;;;;5018581;28;20041;-81
2022/09/21 17:47:17;;;;;;;1.73;1.02;;;15.70;76.40;;;;;;5021132;28;20083;-81
2022/09/21 17:49:44;;;;;;;2.00;1.00;;;15.90;77.00;;;;;;5019888;28;20057;-80
2022/09/21 17:55:07;;;;;;;1.50;1.15;;;15.60;76.40;;;;;;5035820;28;20034;-80
2022/09/21 17:58:06;;;;;;;3.10;1.10;;;15.60;76.30;;;;;;5007144;28;20088;-79
2022/09/21 18:00:58;;;;;;;1.30;1.20;;;15.60;76.20;;;;;;5038074;28;20128;-80
2022/09/21 18:03:29;;;;;;;1.15;1.02;;;15.60;76.10;;;;;;5019902;28;20089;-80
2022/09/21 18:05:59;;;;;;;2.25;1.25;;;15.60;76.30;;;;;;5026851;28;20044;-79
2022/09/21 18:08:32;;;;;;;1.95;1.20;;;15.60;76.80;;;;;;5026449;28;20042;-81
2022/09/21 18:11:27;;;;;;;2.35;1.35;;;15.60;77.10;;;;;;5022860;28;20471;-81
2022/09/21 18:13:59;;;;;;;1.57;1.40;;;15.50;77.10;;;;;;5022249;28;20095;-81
2022/09/21 18:16:32;;;;;;;1.85;1.42;;;15.60;77.50;;;;;;5024449;28;20044;-81
2022/09/21 18:19:16;;;;;;;1.65;1.40;;;15.50;77.70;;;;;;5026839;28;20026;-84
2022/09/21 18:21:44;;;;;;;1.80;1.70;;;15.50;78.10;;;;;;5025093;28;20033;-83
2022/09/21 18:24:30;;;;;;;2.90;1.88;;;15.60;78.40;;;;;;5006094;28;20041;-82
2022/09/21 18:26:57;;;;;;;2.00;1.58;;;15.50;78.50;;;;;;5022128;28;20057;-84
2022/09/21 18:29:26;;;;;;;2.47;2.17;;;15.60;78.70;;;;;;4994426;28;20059;-83
2022/09/21 18:32:01;;;;;;;5.18;2.50;;;15.60;78.90;;;;;;5006061;28;20428;-81
2022/09/21 18:34:58;;;;;;;3.60;2.50;;;15.50;79.00;;;;;;5025545;28;20531;-82
2022/09/21 18:37:48;;;;;;;3.58;2.58;;;15.50;79.20;;;;;;5022820;28;20038;-84
2022/09/21 18:40:20;;;;;;;3.35;2.33;;;15.60;79.40;;;;;;5023643;28;20423;-83
2022/09/21 18:43:15;;;;;;;3.00;2.33;;;15.50;79.50;;;;;;5023043;28;20040;-78
2022/09/21 18:45:46;;;;;;;2.72;2.38;;;15.50;79.80;;;;;;5026623;28;20098;-78
2022/09/21 18:48:34;;;;;;;4.72;2.90;;;15.50;79.80;;;;;;5026467;28;20033;-79
2022/09/21 18:51:29;;;;;;;3.42;2.58;;;15.50;80.00;;;;;;5025572;28;20037;-82
2022/09/21 18:53:56;;;;;;;4.00;2.33;;;15.50;80.10;;;;;;5026828;28;20029;-76
2022/09/21 18:56:25;;;;;;;3.03;2.30;;;15.50;80.20;;;;;;5025659;28;20068;-76
2022/09/21 18:58:52;;;;;;;4.53;2.53;;;15.50;80.30;;;;;;5021744;28;20048;-78
2022/09/21 19:01:22;;;;;;;3.17;2.40;;;15.50;80.40;;;;;;5008557;28;20042;-78
2022/09/21 19:03:48;;;;;;;3.33;2.47;;;15.50;80.60;;;;;;5025667;28;20026;-78
2022/09/21 19:06:25;;;;;;;3.00;2.20;;;15.60;80.70;;;;;;5027115;28;20510;-80
2022/09/21 19:09:17;;;;;;;3.72;2.65;;;15.60;80.80;;;;;;5024666;28;20033;-77
2022/09/21 19:12:16;;;;;;;2.45;2.25;;;15.60;80.90;;;;;;5040290;28;20061;-77
2022/09/21 19:14:58;;;;;;;2.80;2.30;;;15.60;81.10;;;;;;5014230;28;20040;-78
2022/09/21 19:17:39;;;;;;;3.20;2.53;;;15.60;81.00;;;;;;5012484;28;20050;-78
2022/09/21 19:20:26;;;;;;;3.17;2.35;;;15.60;81.10;;;;;;5011933;28;20595;-77
2022/09/21 19:23:04;;;;;;;2.55;2.35;;;15.60;81.30;;;;;;5012006;28;20033;-78
2022/09/21 19:25:40;;;;;;;2.92;2.63;;;15.60;81.30;;;;;;5003317;28;20042;-78
2022/09/21 19:28:20;;;;;;;4.45;2.40;;;15.60;81.30;;;;;;5011770;28;20042;-78
2022/09/21 19:30:50;;;;;;;2.80;2.47;;;15.60;81.30;;;;;;5012186;28;20061;-78
2022/09/21 19:33:30;;;;;;;3.85;2.60;;;15.60;81.30;;;;;;5011366;28;20069;-74
2022/09/21 19:35:56;;;;;;;3.92;2.90;;;15.60;81.30;;;;;;5012747;28;20126;-75
2022/09/21 19:38:22;;;;;;;3.47;2.58;;;15.60;81.30;;;;;;4995999;28;20049;-78